createdAt,value
2022-11-21T00:01:50.958Z,96282.63
2022-11-21T00:04:17.967Z,96279.16
2022-11-21T00:06:44.990Z,96282.06
2022-11-21T00:09:12.078Z,96279.53
2022-11-21T00:11:40.539Z,96281.47
2022-11-21T00:14:07.604Z,96276.34
2022-11-21T00:16:34.549Z,96269.34
2022-11-21T00:19:03.549Z,96267.47
2022-11-21T00:21:30.391Z,96266.56
2022-11-21T00:23:57.393Z,96264.00
2022-11-21T00:26:24.302Z,96266.50
2022-11-21T00:28:52.596Z,96266.72
2022-11-21T00:31:21.523Z,96265.88
2022-11-21T00:33:48.511Z,96257.47
2022-11-21T00:36:15.565Z,96257.25
2022-11-21T00:38:42.737Z,96249.00
2022-11-21T00:41:09.851Z,96246.44
2022-11-21T00:43:36.903Z,96247.91
2022-11-21T00:46:06.264Z,96247.13
2022-11-21T00:48:33.271Z,96242.78
2022-11-21T00:51:00.877Z,96233.31
2022-11-21T00:53:28.970Z,96242.78
2022-11-21T00:55:56.238Z,96228.41
2022-11-21T00:58:23.356Z,96238.16
2022-11-21T01:00:50.558Z,96231.56
2022-11-21T01:03:19.170Z,96225.91
2022-11-21T01:05:46.189Z,96236.13
2022-11-21T01:08:13.220Z,96231.50
2022-11-21T01:10:40.271Z,96231.69
2022-11-21T01:13:07.300Z,96240.97
2022-11-21T01:15:34.680Z,96238.41
2022-11-21T01:18:01.674Z,96238.47
2022-11-21T01:20:30.431Z,96223.06
2022-11-21T01:22:58.188Z,96226.44
2022-11-21T01:25:25.038Z,96223.81
2022-11-21T01:27:52.074Z,96220.59
2022-11-21T01:30:19.153Z,96225.00
2022-11-21T01:32:48.824Z,96217.38
2022-11-21T01:35:16.066Z,96214.94
2022-11-21T01:37:47.238Z,96209.88
2022-11-21T01:40:14.876Z,96222.69
2022-11-21T01:42:53.480Z,96226.19
2022-11-21T01:45:53.102Z,96214.31
2022-11-21T01:48:23.210Z,96215.19
2022-11-21T01:50:50.261Z,96206.09
2022-11-21T01:53:19.053Z,96206.03
2022-11-21T01:55:46.120Z,96201.78
2022-11-21T01:58:14.204Z,96200.91
2022-11-21T02:00:44.566Z,96204.16
2022-11-21T02:03:15.869Z,96206.69
2022-11-21T02:05:43.044Z,96200.72
2022-11-21T02:08:16.677Z,96197.56
2022-11-21T02:10:57.856Z,96197.69
2022-11-21T02:13:24.909Z,96198.78
2022-11-21T02:15:52.169Z,96191.09
2022-11-21T02:18:19.198Z,96192.75
2022-11-21T02:20:53.679Z,96197.94
2022-11-21T02:23:31.832Z,96194.66
2022-11-21T02:26:00.758Z,96196.22
2022-11-21T02:28:27.999Z,96184.34
2022-11-21T02:30:55.141Z,96172.41
2022-11-21T02:33:22.140Z,96170.81
2022-11-21T02:35:57.625Z,96176.84
2022-11-21T02:38:29.389Z,96170.88
2022-11-21T02:41:07.257Z,96159.78
2022-11-21T02:43:41.749Z,96159.91
2022-11-21T02:46:08.785Z,96152.09
2022-11-21T02:48:37.404Z,96139.94
2022-11-21T02:51:04.721Z,96139.94
2022-11-21T02:53:31.921Z,96145.63
2022-11-21T02:55:58.945Z,96146.38
2022-11-21T02:58:27.583Z,96143.81
2022-11-21T03:00:54.710Z,96138.75
2022-11-21T03:03:21.959Z,96143.81
2022-11-21T03:05:49.282Z,96150.63
2022-11-21T03:08:16.339Z,96143.00
2022-11-21T03:10:43.350Z,96149.00
2022-11-21T03:13:10.411Z,96145.56
2022-11-21T03:15:38.856Z,96148.13
2022-11-21T03:18:06.029Z,96142.94
2022-11-21T03:20:34.585Z,96139.88
2022-11-21T03:23:02.428Z,96125.50
2022-11-21T03:25:29.513Z,96132.88
2022-11-21T03:27:56.536Z,96121.66
2022-11-21T03:30:25.127Z,96130.03
2022-11-21T03:32:55.970Z,96130.09
2022-11-21T03:35:23.088Z,96119.03
2022-11-21T03:37:50.110Z,96131.00
2022-11-21T03:40:17.241Z,96130.28
2022-11-21T03:42:44.607Z,96132.09
2022-11-21T03:45:11.674Z,96130.22
2022-11-21T03:47:38.691Z,96131.84
2022-11-21T03:50:08.209Z,96129.22
2022-11-21T03:52:35.238Z,96128.56
2022-11-21T03:55:02.261Z,96132.94
2022-11-21T03:57:29.298Z,96124.53
2022-11-21T03:59:56.355Z,96129.78
2022-11-21T04:02:23.381Z,96131.38
2022-11-21T04:04:50.907Z,96134.66
2022-11-21T04:07:19.660Z,96130.50
2022-11-21T04:09:46.724Z,96135.56
2022-11-21T04:12:13.762Z,96135.63
2022-11-21T04:14:40.780Z,96129.78
2022-11-21T04:17:07.808Z,96135.81
2022-11-21T04:19:34.885Z,96139.44
2022-11-21T04:22:02.403Z,96154.91
2022-11-21T04:24:31.069Z,96150.03
2022-11-21T04:26:58.251Z,96156.25
2022-11-21T04:29:25.274Z,96145.34
2022-11-21T04:31:52.941Z,96146.44
2022-11-21T04:34:19.987Z,96142.38
2022-11-21T04:36:47.143Z,96152.00
2022-11-21T04:39:14.300Z,96150.38
2022-11-21T04:41:42.789Z,96154.09
2022-11-21T04:44:09.833Z,96157.47
2022-11-21T04:46:37.317Z,96124.06
2022-11-21T04:49:04.791Z,96123.94
2022-11-21T04:51:32.218Z,96123.09
2022-11-21T04:53:59.423Z,96117.13
2022-11-21T04:56:26.406Z,96116.25
2022-11-21T04:58:54.914Z,96123.16
2022-11-21T05:01:21.966Z,96136.09
2022-11-21T05:03:49.003Z,96120.06
2022-11-21T05:06:16.010Z,96127.63
2022-11-21T05:08:44.833Z,96127.56
2022-11-21T05:11:14.941Z,96122.38
2022-11-21T05:13:41.940Z,96115.34
2022-11-21T05:16:10.359Z,96118.63
2022-11-21T05:18:37.425Z,96115.16
2022-11-21T05:21:04.581Z,96105.94
2022-11-21T05:23:31.572Z,96094.00
2022-11-21T05:25:58.664Z,96099.19
2022-11-21T05:28:25.708Z,96105.34
2022-11-21T05:30:52.767Z,96105.28
2022-11-21T05:33:21.779Z,96112.84
2022-11-21T05:35:48.843Z,96124.88
2022-11-21T05:38:15.861Z,96118.28
2022-11-21T05:40:42.895Z,96119.94
2022-11-21T05:43:11.613Z,96120.72
2022-11-21T05:45:38.719Z,96135.13
2022-11-21T05:48:06.303Z,96113.81
2022-11-21T05:50:35.099Z,96124.28
2022-11-21T05:53:03.318Z,96123.59
2022-11-21T05:55:30.493Z,96134.66
2022-11-21T05:57:59.179Z,96129.28
2022-11-21T06:00:26.627Z,96129.22
2022-11-21T06:02:53.744Z,96117.38
2022-11-21T06:05:20.952Z,96125.84
2022-11-21T06:07:49.743Z,96129.22
2022-11-21T06:10:17.493Z,96121.56
2022-11-21T06:12:44.533Z,96124.88
2022-11-21T06:15:11.502Z,96115.53
2022-11-21T06:17:38.572Z,96118.41
2022-11-21T06:20:06.623Z,96120.22
2022-11-21T06:22:33.784Z,96115.97
2022-11-21T06:25:02.185Z,96120.13
2022-11-21T06:27:29.354Z,96129.16
2022-11-21T06:29:56.345Z,96108.69
2022-11-21T06:32:23.420Z,96111.19
2022-11-21T06:34:50.522Z,96116.19
2022-11-21T06:37:18.454Z,96120.84
2022-11-21T06:39:45.583Z,96126.22
2022-11-21T06:42:14.024Z,96116.78
2022-11-21T06:44:41.125Z,96131.09
2022-11-21T06:47:08.635Z,96133.59
2022-11-21T06:49:36.168Z,96128.53
2022-11-21T06:52:03.692Z,96129.34
2022-11-21T06:54:30.947Z,96121.56
2022-11-21T06:56:58.724Z,96136.03
2022-11-21T06:59:27.158Z,96133.41
2022-11-21T07:01:54.194Z,96126.63
2022-11-21T07:04:21.275Z,96129.94
2022-11-21T07:06:48.503Z,96126.38
2022-11-21T07:09:32.707Z,96131.44
2022-11-21T07:12:01.443Z,96128.94
2022-11-21T07:14:29.907Z,96129.13
2022-11-21T07:16:56.917Z,96174.06
2022-11-21T07:19:23.958Z,96129.63
2022-11-21T07:21:50.981Z,96162.81
2022-11-21T07:24:18.144Z,96149.75
2022-11-21T07:26:45.163Z,96161.81
2022-11-21T07:29:12.185Z,96127.44
2022-11-21T07:31:40.742Z,96153.88
2022-11-21T07:34:07.829Z,96165.84
2022-11-21T07:36:35.050Z,96172.00
2022-11-21T07:39:02.293Z,96162.50
2022-11-21T07:41:29.507Z,96139.56
2022-11-21T07:43:56.591Z,96182.84
2022-11-21T07:46:23.605Z,96184.66
2022-11-21T07:48:52.083Z,96145.22
2022-11-21T07:51:19.219Z,96138.31
2022-11-21T07:53:46.226Z,96139.91
2022-11-21T07:56:13.315Z,96145.94
2022-11-21T07:58:40.359Z,96139.00
2022-11-21T08:01:07.952Z,96138.88
2022-11-21T08:03:35.457Z,96146.56
2022-11-21T08:06:05.193Z,96138.75
2022-11-21T08:08:32.510Z,96142.81
2022-11-21T08:10:59.572Z,96130.63
2022-11-21T08:13:29.403Z,96129.66
2022-11-21T08:15:56.454Z,96133.75
2022-11-21T08:18:23.534Z,96125.72
2022-11-21T08:20:50.525Z,96121.31
2022-11-21T08:23:19.267Z,96127.09
2022-11-21T08:25:46.292Z,96110.59
2022-11-21T08:28:13.334Z,96100.22
2022-11-21T08:30:40.641Z,96101.66
2022-11-21T08:33:08.632Z,96099.84
2022-11-21T08:35:37.282Z,96105.69
2022-11-21T08:38:04.855Z,96113.94
2022-11-21T08:40:33.614Z,96108.75
2022-11-21T08:43:03.194Z,96112.84
2022-11-21T08:45:30.356Z,96115.22
2022-11-21T08:47:57.361Z,96118.25
2022-11-21T08:50:25.562Z,96109.53
2022-11-21T08:52:53.285Z,96119.47
2022-11-21T08:55:20.302Z,96113.13
2022-11-21T08:57:48.831Z,96122.16
2022-11-21T09:00:16.755Z,96116.53
2022-11-21T09:02:44.315Z,96118.00
2022-11-21T09:05:11.457Z,96109.28
2022-11-21T09:07:38.591Z,96108.19
2022-11-21T09:10:07.861Z,96107.09
2022-11-21T09:12:34.881Z,96099.09
2022-11-21T09:15:03.477Z,96108.19
2022-11-21T09:17:30.567Z,96107.91
2022-11-21T09:19:57.655Z,96112.84
2022-11-21T09:22:25.078Z,96109.28
2022-11-21T09:24:52.147Z,96102.25
2022-11-21T09:27:19.183Z,96106.34
2022-11-21T09:29:52.337Z,96110.34
2022-11-21T09:32:22.512Z,96108.47
2022-11-21T09:34:49.650Z,96111.78
2022-11-21T09:37:17.324Z,96105.75
2022-11-21T09:39:44.819Z,96092.81
2022-11-21T09:42:35.044Z,96090.84
2022-11-21T09:45:08.980Z,96097.50
2022-11-21T09:47:42.810Z,96093.94
2022-11-21T09:50:26.290Z,96086.72
2022-11-21T09:52:58.945Z,96065.03
2022-11-21T09:55:32.204Z,96073.19
2022-11-21T09:58:03.006Z,96073.47
2022-11-21T10:00:31.185Z,96066.09
2022-11-21T10:03:00.995Z,96075.84
2022-11-21T10:05:36.284Z,96067.88
2022-11-21T10:08:11.808Z,96066.81
2022-11-21T10:10:53.935Z,96068.38
2022-11-21T10:13:33.926Z,96066.59
2022-11-21T10:16:09.455Z,96062.41
2022-11-21T10:19:12.091Z,96059.44
2022-11-21T10:21:58.707Z,96059.09
2022-11-21T10:24:40.174Z,96057.03
2022-11-21T10:27:15.236Z,96062.50
2022-11-21T10:29:47.845Z,96051.94
2022-11-21T10:32:22.262Z,96044.75
2022-11-21T10:34:53.807Z,96030.09
2022-11-21T10:37:32.152Z,96040.34
2022-11-21T10:40:10.428Z,96035.56
2022-11-21T10:42:45.202Z,96038.06
2022-11-21T10:45:14.724Z,96050.78
2022-11-21T10:47:42.584Z,96045.47
2022-11-21T10:50:25.641Z,96040.38
2022-11-21T10:53:03.595Z,96039.47
2022-11-21T10:55:31.018Z,96034.34
2022-11-21T10:57:58.573Z,96028.34
2022-11-21T11:00:27.768Z,96023.19
2022-11-21T11:03:16.000Z,96013.16
2022-11-21T11:05:55.952Z,96013.16
2022-11-21T11:08:22.871Z,96017.47
2022-11-21T11:11:03.725Z,96014.72
2022-11-21T11:13:49.446Z,96016.28
2022-11-21T11:16:19.917Z,96006.06
2022-11-21T11:18:51.531Z,96005.06
2022-11-21T11:21:22.172Z,96005.81
2022-11-21T11:23:50.886Z,96008.31
2022-11-21T11:26:27.653Z,96005.47
2022-11-21T11:29:07.955Z,96004.13
2022-11-21T11:31:41.597Z,95999.63
2022-11-21T11:34:13.466Z,95994.28
2022-11-21T11:36:54.258Z,95998.91
2022-11-21T11:39:36.166Z,95991.56
2022-11-21T11:42:43.741Z,95994.53
2022-11-21T11:45:31.412Z,95994.16
2022-11-21T11:48:00.326Z,95977.41
2022-11-21T11:50:33.328Z,95978.91
2022-11-21T11:53:07.961Z,95972.44
2022-11-21T11:55:42.431Z,95966.72
2022-11-21T11:58:21.610Z,95978.09
2022-11-21T12:00:52.331Z,95971.44
2022-11-21T12:03:25.466Z,95966.47
2022-11-21T12:06:04.678Z,95961.19
2022-11-21T12:08:44.197Z,95961.19
2022-11-21T12:11:23.799Z,95972.06
2022-11-21T12:13:55.659Z,95956.09
2022-11-21T12:16:25.941Z,95958.41
2022-11-21T12:18:56.847Z,95965.31
2022-11-21T12:21:24.078Z,95964.19
2022-11-21T12:23:55.374Z,95965.28
2022-11-21T12:26:40.489Z,95956.44
2022-11-21T12:29:24.673Z,95961.31
2022-11-21T12:32:09.138Z,95958.53
2022-11-21T12:34:57.157Z,95948.63
2022-11-21T12:37:36.819Z,95947.34
2022-11-21T12:40:25.815Z,95947.59
2022-11-21T12:43:09.439Z,95955.22
2022-11-21T12:45:39.391Z,95941.38
2022-11-21T12:48:17.457Z,95944.41
2022-11-21T12:50:53.096Z,95937.47
2022-11-21T12:53:29.556Z,95930.53
2022-11-21T12:56:08.282Z,95932.72
2022-11-21T12:58:42.861Z,95926.31
2022-11-21T13:01:22.156Z,95928.50
2022-11-21T13:03:59.441Z,95918.59
2022-11-21T13:06:29.357Z,95901.22
2022-11-21T13:08:59.921Z,95906.00
2022-11-21T13:11:39.496Z,95917.97
2022-11-21T13:14:14.257Z,95917.78
2022-11-21T13:16:48.450Z,95912.69
2022-11-21T13:19:22.443Z,95915.28
2022-11-21T13:21:51.207Z,95914.78
2022-11-21T13:24:54.589Z,95912.19
2022-11-21T13:27:34.809Z,95907.63
2022-11-21T13:30:22.501Z,95912.91
2022-11-21T13:32:50.642Z,95906.81
2022-11-21T13:35:59.803Z,95906.00
2022-11-21T13:38:26.937Z,95899.16
2022-11-21T13:40:54.464Z,95899.16
2022-11-21T13:43:35.230Z,95891.50
2022-11-21T13:46:02.997Z,95900.47
2022-11-21T13:48:59.195Z,95891.28
2022-11-21T13:51:54.495Z,95904.13
2022-11-21T13:54:34.068Z,95899.97
